createdAt,value
2022-11-06T00:02:20.751Z,78.60
2022-11-06T00:04:48.380Z,77.40
2022-11-06T00:07:15.714Z,76.80
2022-11-06T00:09:42.895Z,76.80
2022-11-06T00:12:10.193Z,76.90
2022-11-06T00:14:37.383Z,76.80
2022-11-06T00:17:04.706Z,77.40
2022-11-06T00:19:31.886Z,77.70
2022-11-06T00:21:59.141Z,77.30
2022-11-06T00:24:26.440Z,77.20
2022-11-06T00:26:54.679Z,76.60
2022-11-06T00:29:22.363Z,76.60
2022-11-06T00:31:50.677Z,76.80
2022-11-06T00:34:18.292Z,76.90
2022-11-06T00:36:45.483Z,77.40
2022-11-06T00:39:12.826Z,77.40
2022-11-06T00:41:40.049Z,77.10
2022-11-06T00:44:07.258Z,76.80
2022-11-06T00:46:34.390Z,76.40
2022-11-06T00:49:01.664Z,76.30
2022-11-06T00:51:32.007Z,76.30
2022-11-06T00:54:02.542Z,76.60
2022-11-06T00:56:30.540Z,76.90
2022-11-06T00:59:00.458Z,76.60
2022-11-06T01:01:36.919Z,76.60
2022-11-06T01:04:16.798Z,76.20
2022-11-06T01:06:47.077Z,75.60
2022-11-06T01:09:22.434Z,75.70
2022-11-06T01:12:12.441Z,75.50
2022-11-06T01:14:41.430Z,75.60
2022-11-06T01:17:08.828Z,75.60
2022-11-06T01:19:36.218Z,75.40
2022-11-06T01:22:03.771Z,75.60
2022-11-06T01:24:31.527Z,76.10
2022-11-06T01:27:24.909Z,77.40
2022-11-06T01:29:46.501Z,78.20
2022-11-06T01:32:14.044Z,79.90
2022-11-06T01:34:41.194Z,79.10
2022-11-06T01:37:13.217Z,79.50
2022-11-06T01:39:41.810Z,79.90
2022-11-06T01:42:11.983Z,79.10
2022-11-06T01:44:41.942Z,79.70
2022-11-06T01:47:27.361Z,79.70
2022-11-06T01:49:58.545Z,79.20
2022-11-06T01:52:27.291Z,78.10
2022-11-06T01:55:04.560Z,78.00
2022-11-06T01:57:31.717Z,77.50
2022-11-06T02:00:00.085Z,77.60
2022-11-06T02:02:27.683Z,75.90
2022-11-06T02:04:54.983Z,75.80
2022-11-06T02:07:22.242Z,75.80
2022-11-06T02:09:52.722Z,75.30
2022-11-06T02:12:44.735Z,75.40
2022-11-06T02:15:33.504Z,77.20
2022-11-06T02:18:34.552Z,75.80
2022-11-06T02:21:07.700Z,76.00
2022-11-06T02:24:09.004Z,76.40
2022-11-06T02:27:05.198Z,76.80
2022-11-06T02:29:46.762Z,76.00
2022-11-06T02:32:46.097Z,76.20
2022-11-06T02:35:18.294Z,76.10
2022-11-06T02:37:47.703Z,76.20
2022-11-06T02:40:16.857Z,76.40
2022-11-06T02:42:48.118Z,76.60
2022-11-06T02:45:17.492Z,76.80
2022-11-06T02:47:47.776Z,77.10
2022-11-06T02:50:26.251Z,77.30
2022-11-06T02:53:07.027Z,77.90
2022-11-06T02:55:44.001Z,78.10
2022-11-06T02:58:39.244Z,78.00
2022-11-06T03:01:15.952Z,78.10
2022-11-06T03:03:48.332Z,78.00
2022-11-06T03:06:18.952Z,78.20
2022-11-06T03:08:57.203Z,78.00
2022-11-06T03:11:28.413Z,78.00
2022-11-06T03:14:17.327Z,78.60
2022-11-06T03:16:47.614Z,78.60
2022-11-06T03:19:26.925Z,78.50
2022-11-06T03:22:18.661Z,78.60
2022-11-06T03:24:58.187Z,78.40
2022-11-06T03:28:02.879Z,78.80
2022-11-06T03:30:31.356Z,79.10
2022-11-06T03:33:23.516Z,79.40
2022-11-06T03:35:59.968Z,79.80
2022-11-06T03:38:42.167Z,80.40
2022-11-06T03:41:33.881Z,78.00
2022-11-06T03:44:03.935Z,74.50
2022-11-06T03:46:33.212Z,74.20
2022-11-06T03:49:10.312Z,74.40
2022-11-06T03:52:00.218Z,74.60
2022-11-06T03:54:34.037Z,74.30
2022-11-06T03:57:09.524Z,73.90
2022-11-06T03:59:43.029Z,70.60
2022-11-06T04:02:13.356Z,69.30
2022-11-06T04:04:45.695Z,68.30
2022-11-06T04:07:14.966Z,67.10
2022-11-06T04:10:05.506Z,66.50
2022-11-06T04:12:52.835Z,66.30
2022-11-06T04:15:23.124Z,66.30
2022-11-06T04:17:50.388Z,66.20
2022-11-06T04:20:40.295Z,66.10
2022-11-06T04:23:19.664Z,66.00
2022-11-06T04:26:39.347Z,65.80
2022-11-06T04:29:06.573Z,65.80
2022-11-06T04:32:03.458Z,65.10
2022-11-06T04:34:49.238Z,65.40
2022-11-06T04:37:32.600Z,65.80
2022-11-06T04:40:15.306Z,66.40
2022-11-06T04:42:54.439Z,67.10
2022-11-06T04:45:27.393Z,68.20
2022-11-06T04:47:55.223Z,69.90
2022-11-06T04:50:25.609Z,71.90
2022-11-06T04:52:54.094Z,73.40
2022-11-06T04:55:22.788Z,75.40
2022-11-06T04:57:50.041Z,76.50
2022-11-06T05:00:17.772Z,76.80
2022-11-06T05:02:45.030Z,77.40
2022-11-06T05:05:12.243Z,77.70
2022-11-06T05:07:39.833Z,78.00
2022-11-06T05:10:07.351Z,78.60
2022-11-06T05:12:34.571Z,79.20
2022-11-06T05:15:01.873Z,79.60
2022-11-06T05:17:31.532Z,79.50
2022-11-06T05:20:02.900Z,79.60
2022-11-06T05:22:48.795Z,79.90
2022-11-06T05:25:16.177Z,80.00
2022-11-06T05:27:43.298Z,80.40
2022-11-06T05:30:10.940Z,80.60
2022-11-06T05:32:38.342Z,80.50
2022-11-06T05:35:05.866Z,80.80
2022-11-06T05:37:33.319Z,80.90
2022-11-06T05:40:00.617Z,81.40
2022-11-06T05:42:28.051Z,81.80
2022-11-06T05:44:55.282Z,81.50
2022-11-06T05:47:22.870Z,80.30
2022-11-06T05:49:50.024Z,80.10
2022-11-06T05:52:17.283Z,79.90
2022-11-06T05:54:44.527Z,79.90
2022-11-06T05:57:11.807Z,79.80
2022-11-06T05:59:39.058Z,80.00
2022-11-06T06:02:06.465Z,80.50
2022-11-06T06:04:33.751Z,80.90
2022-11-06T06:07:01.101Z,80.80
2022-11-06T06:09:28.455Z,80.60
2022-11-06T06:11:55.733Z,80.20
2022-11-06T06:14:22.944Z,80.00
2022-11-06T06:16:50.110Z,79.50
2022-11-06T06:19:18.740Z,78.90
2022-11-06T06:21:45.882Z,77.90
2022-11-06T06:24:13.191Z,77.40
2022-11-06T06:26:40.454Z,76.70
2022-11-06T06:29:07.624Z,76.40
2022-11-06T06:31:35.003Z,75.80
2022-11-06T06:34:02.148Z,75.30
2022-11-06T06:36:29.379Z,75.30
2022-11-06T06:38:56.560Z,75.20
2022-11-06T06:41:23.798Z,75.10
2022-11-06T06:43:51.204Z,75.10
2022-11-06T06:46:18.618Z,75.20
2022-11-06T06:48:45.986Z,75.50
2022-11-06T06:51:13.344Z,75.80
2022-11-06T06:53:40.587Z,76.10
2022-11-06T06:56:07.927Z,77.00
2022-11-06T06:58:35.308Z,77.40
2022-11-06T07:01:04.285Z,76.90
2022-11-06T07:03:32.314Z,77.10
2022-11-06T07:06:00.364Z,76.10
2022-11-06T07:08:28.404Z,74.70
2022-11-06T07:11:03.824Z,72.80
2022-11-06T07:13:35.607Z,71.70
2022-11-06T07:16:08.719Z,71.40
2022-11-06T07:18:36.557Z,71.60
2022-11-06T07:21:08.266Z,69.60
2022-11-06T07:23:36.783Z,67.70
2022-11-06T07:26:05.252Z,66.70
2022-11-06T07:28:32.953Z,64.80
2022-11-06T07:31:02.507Z,64.20
2022-11-06T07:33:30.367Z,63.10
2022-11-06T07:36:03.773Z,62.30
2022-11-06T07:38:33.090Z,61.70
2022-11-06T07:41:12.664Z,60.60
2022-11-06T07:43:43.096Z,60.10
2022-11-06T07:46:12.510Z,59.40
2022-11-06T07:48:39.976Z,59.60
2022-11-06T07:51:10.228Z,59.20
2022-11-06T07:53:38.651Z,59.60
2022-11-06T07:56:06.317Z,59.60
2022-11-06T07:58:34.159Z,59.60
2022-11-06T08:01:02.680Z,59.40
2022-11-06T08:03:30.529Z,60.20
2022-11-06T08:06:04.345Z,60.00
2022-11-06T08:08:31.727Z,59.20
2022-11-06T08:11:06.806Z,58.40
2022-11-06T08:13:35.157Z,56.90
2022-11-06T08:16:10.126Z,56.50
2022-11-06T08:18:38.084Z,57.40
2022-11-06T08:21:07.268Z,56.40
2022-11-06T08:23:36.153Z,56.00
2022-11-06T08:26:05.732Z,55.50
2022-11-06T08:28:33.123Z,55.50
2022-11-06T08:31:04.786Z,55.70
2022-11-06T08:33:32.703Z,55.70
2022-11-06T08:36:05.836Z,55.70
2022-11-06T08:38:33.493Z,54.60
2022-11-06T08:41:06.382Z,54.30
2022-11-06T08:43:33.887Z,53.90
2022-11-06T08:46:01.092Z,53.40
2022-11-06T08:48:28.403Z,55.50
2022-11-06T08:50:55.681Z,56.70
2022-11-06T08:53:23.919Z,56.50
2022-11-06T08:55:51.167Z,56.10
2022-11-06T08:58:18.422Z,56.40
2022-11-06T09:00:45.617Z,56.50
2022-11-06T09:03:16.136Z,55.50
2022-11-06T09:05:44.511Z,55.40
2022-11-06T09:08:11.967Z,55.10
2022-11-06T09:10:41.014Z,55.20
2022-11-06T09:13:08.373Z,54.70
2022-11-06T09:15:36.678Z,54.80
2022-11-06T09:18:04.179Z,54.60
2022-11-06T09:20:31.430Z,54.70
2022-11-06T09:23:04.482Z,54.10
2022-11-06T09:25:32.066Z,54.30
2022-11-06T09:27:59.890Z,54.50
2022-11-06T09:30:30.062Z,52.70
2022-11-06T09:33:00.291Z,52.00
2022-11-06T09:35:30.522Z,52.40
2022-11-06T09:38:15.854Z,52.30
2022-11-06T09:40:47.479Z,52.20
2022-11-06T09:44:04.080Z,50.80
2022-11-06T09:46:25.874Z,50.30
2022-11-06T09:49:32.179Z,49.60
2022-11-06T09:52:02.454Z,50.50
2022-11-06T09:54:36.512Z,48.70
2022-11-06T09:57:23.571Z,48.10
2022-11-06T09:59:51.410Z,47.30
2022-11-06T10:02:55.960Z,47.40
2022-11-06T10:05:26.397Z,48.00
2022-11-06T10:08:15.110Z,48.00
2022-11-06T10:11:15.047Z,48.40
2022-11-06T10:13:51.229Z,50.00
2022-11-06T10:16:23.920Z,50.20
2022-11-06T10:19:06.241Z,51.20
2022-11-06T10:21:42.384Z,50.30
2022-11-06T10:24:42.988Z,52.00
2022-11-06T10:27:19.078Z,53.60
2022-11-06T10:30:15.911Z,53.60
2022-11-06T10:33:14.477Z,54.60
2022-11-06T10:35:55.113Z,53.80
2022-11-06T10:38:29.411Z,53.80
2022-11-06T10:40:57.087Z,51.90
2022-11-06T10:43:43.466Z,50.60
2022-11-06T10:46:19.925Z,50.50
2022-11-06T10:49:12.568Z,49.40
2022-11-06T10:52:08.865Z,48.60
2022-11-06T10:54:36.180Z,46.80
2022-11-06T10:57:21.710Z,45.80
2022-11-06T10:59:49.780Z,45.00
2022-11-06T11:02:30.495Z,44.20
2022-11-06T11:04:58.534Z,43.40
2022-11-06T11:07:30.419Z,44.50
2022-11-06T11:09:57.719Z,44.70
2022-11-06T11:12:28.901Z,45.10
2022-11-06T11:15:13.129Z,46.10
2022-11-06T11:17:42.219Z,46.00
2022-11-06T11:20:32.639Z,45.10
2022-11-06T11:23:19.503Z,44.90
2022-11-06T11:25:55.418Z,43.90
2022-11-06T11:28:22.688Z,44.20
2022-11-06T11:31:04.747Z,45.20
2022-11-06T11:33:33.273Z,46.20
2022-11-06T11:36:02.518Z,47.20
2022-11-06T11:38:38.134Z,48.50
2022-11-06T11:41:14.722Z,49.70
2022-11-06T11:43:42.707Z,50.90
2022-11-06T11:46:10.077Z,51.40
2022-11-06T11:48:58.007Z,52.10
2022-11-06T11:51:28.860Z,53.50
2022-11-06T11:54:07.204Z,54.40
2022-11-06T11:57:06.732Z,54.30
2022-11-06T11:59:31.955Z,54.20
2022-11-06T12:02:14.761Z,54.40
2022-11-06T12:04:49.848Z,54.60
2022-11-06T12:07:43.452Z,53.00
2022-11-06T12:10:37.762Z,51.30
2022-11-06T12:13:15.336Z,49.70
2022-11-06T12:16:01.034Z,49.70
2022-11-06T12:18:48.214Z,48.90
2022-11-06T12:21:23.329Z,48.80
2022-11-06T12:24:00.460Z,50.10
2022-11-06T12:26:42.586Z,49.70
2022-11-06T12:29:36.790Z,48.70
2022-11-06T12:32:12.673Z,49.30
2022-11-06T12:34:52.996Z,50.30
2022-11-06T12:37:46.111Z,51.90
2022-11-06T12:40:24.994Z,52.90
2022-11-06T12:43:09.139Z,53.70
2022-11-06T12:45:56.645Z,54.50
2022-11-06T12:48:42.953Z,54.70
2022-11-06T12:51:38.499Z,54.60
2022-11-06T12:54:25.610Z,54.90
2022-11-06T12:57:14.581Z,55.80
2022-11-06T13:00:07.262Z,55.50
2022-11-06T13:02:55.657Z,55.60
2022-11-06T13:05:41.269Z,56.10
2022-11-06T13:09:05.753Z,55.50
2022-11-06T13:11:38.838Z,55.50
2022-11-06T13:14:17.524Z,55.30
2022-11-06T13:17:15.957Z,55.30
2022-11-06T13:20:04.378Z,54.40
2022-11-06T13:22:55.620Z,54.60
2022-11-06T13:25:27.366Z,54.80
2022-11-06T13:28:20.449Z,54.20
2022-11-06T13:30:48.660Z,53.90
2022-11-06T13:33:28.906Z,54.10
2022-11-06T13:35:56.817Z,53.80
2022-11-06T13:38:33.763Z,53.20
2022-11-06T13:41:11.932Z,53.60
2022-11-06T13:43:44.962Z,53.70
2022-11-06T13:46:23.983Z,54.20
2022-11-06T13:49:00.491Z,53.10
2022-11-06T13:51:39.026Z,52.60
2022-11-06T13:54:21.075Z,52.20
2022-11-06T13:57:06.553Z,51.90
2022-11-06T13:59:57.701Z,52.10
2022-11-06T14:02:52.231Z,52.50
2022-11-06T14:05:41.280Z,53.80
2022-11-06T14:08:32.365Z,54.60
2022-11-06T14:11:06.630Z,55.60
2022-11-06T14:13:37.106Z,56.40
2022-11-06T14:16:22.337Z,56.70
2022-11-06T14:19:16.808Z,56.50
2022-11-06T14:21:51.634Z,56.70
2022-11-06T14:24:41.006Z,57.10
2022-11-06T14:27:33.535Z,57.40
2022-11-06T14:30:07.177Z,58.00
2022-11-06T14:32:41.385Z,59.00
2022-11-06T14:35:31.035Z,59.40
2022-11-06T14:38:10.464Z,60.10
2022-11-06T14:40:39.345Z,60.60
2022-11-06T14:43:26.971Z,61.10
2022-11-06T14:46:03.612Z,61.90
2022-11-06T14:48:46.633Z,61.90
2022-11-06T14:51:15.707Z,61.90
2022-11-06T14:53:53.551Z,61.20
2022-11-06T14:56:30.298Z,61.60
2022-11-06T14:59:05.216Z,62.50
2022-11-06T15:01:37.537Z,63.20
2022-11-06T15:04:19.745Z,64.10
2022-11-06T15:06:50.685Z,64.50
2022-11-06T15:09:24.071Z,65.00
2022-11-06T15:11:53.152Z,65.10
2022-11-06T15:14:20.352Z,65.40
2022-11-06T15:17:10.818Z,65.80
2022-11-06T15:19:53.316Z,67.20
2022-11-06T15:22:37.950Z,67.30
2022-11-06T15:25:21.778Z,67.30
2022-11-06T15:28:13.631Z,67.80
2022-11-06T15:30:48.470Z,67.80
2022-11-06T15:33:27.881Z,67.70
2022-11-06T15:35:59.520Z,68.90
2022-11-06T15:38:37.337Z,69.20
2022-11-06T15:41:08.206Z,69.70
2022-11-06T15:43:37.552Z,70.30
2022-11-06T15:46:22.380Z,70.40
2022-11-06T15:49:24.502Z,70.50
2022-11-06T15:51:55.175Z,69.90
2022-11-06T15:54:31.487Z,69.60
2022-11-06T15:57:01.605Z,69.70
2022-11-06T15:59:28.832Z,67.30
2022-11-06T16:01:56.929Z,66.20
2022-11-06T16:04:26.340Z,65.70
2022-11-06T16:06:55.435Z,66.00
2022-11-06T16:09:28.413Z,66.10
2022-11-06T16:11:57.110Z,66.40
2022-11-06T16:14:24.475Z,66.70
2022-11-06T16:16:54.733Z,67.10
2022-11-06T16:19:31.929Z,67.40
2022-11-06T16:22:04.036Z,67.40
2022-11-06T16:24:45.088Z,66.40
2022-11-06T16:27:13.453Z,66.40
2022-11-06T16:29:49.631Z,66.20
2022-11-06T16:32:21.011Z,65.60
2022-11-06T16:34:49.046Z,65.20
2022-11-06T16:37:16.120Z,64.90
2022-11-06T16:39:53.030Z,63.90
2022-11-06T16:42:26.183Z,63.30
2022-11-06T16:45:08.541Z,63.20
2022-11-06T16:47:36.055Z,63.20
2022-11-06T16:50:07.200Z,63.20
2022-11-06T16:52:39.336Z,63.20
2022-11-06T16:55:28.509Z,63.40
2022-11-06T16:58:00.394Z,63.70
2022-11-06T17:00:32.351Z,64.10
2022-11-06T17:03:20.183Z,64.40
2022-11-06T17:05:56.575Z,64.60
2022-11-06T17:08:38.664Z,64.80
2022-11-06T17:11:21.992Z,64.80
2022-11-06T17:13:50.729Z,65.00
2022-11-06T17:16:20.841Z,65.30
2022-11-06T17:18:48.410Z,65.50
2022-11-06T17:21:19.823Z,65.90
2022-11-06T17:23:47.895Z,66.20
2022-11-06T17:26:28.647Z,66.40
2022-11-06T17:28:57.247Z,66.90
2022-11-06T17:31:25.181Z,67.30
2022-11-06T17:33:53.148Z,67.50
2022-11-06T17:36:25.339Z,67.80
2022-11-06T17:38:54.251Z,68.20
2022-11-06T17:41:32.503Z,68.40
2022-11-06T17:44:06.987Z,69.00
2022-11-06T17:46:42.601Z,69.20
2022-11-06T17:49:16.857Z,69.50
2022-11-06T17:51:53.503Z,69.80
2022-11-06T17:54:23.293Z,70.10
2022-11-06T17:56:51.637Z,70.60
2022-11-06T17:59:19.355Z,70.60
2022-11-06T18:01:47.974Z,71.00
2022-11-06T18:04:15.269Z,70.90
2022-11-06T18:06:48.640Z,71.50
2022-11-06T18:09:16.640Z,71.60
2022-11-06T18:11:43.899Z,72.00
2022-11-06T18:14:12.063Z,72.10
2022-11-06T18:16:43.950Z,72.20
2022-11-06T18:19:15.354Z,72.70
2022-11-06T18:21:43.511Z,72.50
2022-11-06T18:24:10.854Z,72.50
2022-11-06T18:26:38.464Z,72.60
2022-11-06T18:29:07.315Z,72.00
2022-11-06T18:31:35.248Z,72.20
2022-11-06T18:34:02.789Z,72.40
2022-11-06T18:36:31.544Z,72.20
2022-11-06T18:38:58.842Z,72.20
2022-11-06T18:41:26.206Z,73.30
2022-11-06T18:43:57.655Z,73.20
2022-11-06T18:46:27.079Z,73.60
2022-11-06T18:48:55.657Z,74.80
2022-11-06T18:51:34.428Z,75.50
2022-11-06T18:54:05.143Z,76.40
2022-11-06T18:56:33.760Z,77.30
2022-11-06T18:59:01.245Z,78.50
2022-11-06T19:01:29.845Z,78.90
2022-11-06T19:03:57.230Z,78.50
2022-11-06T19:06:24.736Z,78.30
2022-11-06T19:08:52.020Z,78.30
2022-11-06T19:11:19.477Z,78.40
2022-11-06T19:13:48.608Z,78.60
2022-11-06T19:16:19.671Z,78.90
2022-11-06T19:21:30.616Z,78.80
2022-11-06T19:24:05.784Z,78.90
2022-11-06T19:26:35.608Z,79.30
2022-11-06T19:29:04.027Z,79.20
2022-11-06T19:31:33.246Z,80.00
2022-11-06T19:34:02.042Z,79.70
2022-11-06T19:36:32.024Z,79.40
2022-11-06T19:38:59.614Z,78.70
2022-11-06T19:41:28.082Z,78.50
2022-11-06T19:43:55.632Z,78.70
2022-11-06T19:46:26.005Z,78.90
2022-11-06T19:48:57.255Z,79.20
2022-11-06T19:51:26.094Z,78.90
2022-11-06T19:53:54.486Z,79.10
2022-11-06T19:56:22.091Z,79.20
2022-11-06T19:58:50.841Z,79.40
2022-11-06T20:01:19.151Z,78.90
2022-11-06T20:03:46.929Z,79.10
2022-11-06T20:06:15.059Z,78.90
2022-11-06T20:08:42.559Z,79.20
2022-11-06T20:11:14.614Z,79.40
2022-11-06T20:13:42.761Z,79.40
2022-11-06T20:16:19.530Z,79.60
2022-11-06T20:18:54.840Z,79.60
2022-11-06T20:21:24.485Z,79.90
2022-11-06T20:23:52.120Z,79.90
2022-11-06T20:26:19.771Z,79.50
2022-11-06T20:28:48.674Z,79.60
2022-11-06T20:31:19.827Z,79.70
2022-11-06T20:33:48.320Z,80.00
2022-11-06T20:36:28.456Z,80.10
2022-11-06T20:39:00.166Z,80.40
2022-11-06T20:41:28.997Z,79.80
2022-11-06T20:43:56.767Z,79.40
2022-11-06T20:46:24.994Z,79.30
2022-11-06T20:48:52.803Z,78.90
2022-11-06T20:51:23.058Z,78.80
2022-11-06T20:53:51.132Z,78.50
2022-11-06T20:56:20.751Z,78.50
2022-11-06T20:58:48.998Z,78.20
2022-11-06T21:01:20.203Z,78.20
2022-11-06T21:03:51.258Z,78.00
2022-11-06T21:06:20.015Z,78.20
2022-11-06T21:08:47.388Z,78.30
2022-11-06T21:11:23.641Z,78.50
2022-11-06T21:13:53.559Z,78.80
2022-11-06T21:16:24.741Z,78.60
2022-11-06T21:18:52.647Z,78.90
2022-11-06T21:21:25.949Z,78.70
2022-11-06T21:23:54.133Z,78.80
2022-11-06T21:26:27.757Z,79.10
2022-11-06T21:28:56.195Z,79.10
2022-11-06T21:31:26.442Z,78.90
2022-11-06T21:33:56.401Z,78.40
2022-11-06T21:36:26.583Z,79.00
2022-11-06T21:38:54.995Z,79.20
2022-11-06T21:41:24.799Z,79.40
2022-11-06T21:43:52.229Z,79.00
2022-11-06T21:46:21.097Z,78.70
2022-11-06T21:48:49.461Z,78.70
2022-11-06T21:51:23.338Z,78.90
2022-11-06T21:54:09.667Z,78.80
2022-11-06T21:56:38.707Z,78.80
2022-11-06T21:59:08.442Z,79.00
2022-11-06T22:01:36.757Z,79.10
2022-11-06T22:04:04.395Z,79.20
2022-11-06T22:06:35.087Z,79.20
2022-11-06T22:09:03.934Z,79.40
2022-11-06T22:11:34.010Z,79.60
2022-11-06T22:14:04.192Z,79.70
2022-11-06T22:16:34.308Z,79.50
2022-11-06T22:19:01.743Z,79.70
2022-11-06T22:21:33.182Z,79.80
2022-11-06T22:24:00.443Z,79.90
2022-11-06T22:26:31.290Z,80.00
2022-11-06T22:29:00.898Z,80.30
2022-11-06T22:31:29.257Z,80.30
2022-11-06T22:33:57.027Z,80.40
2022-11-06T22:36:25.185Z,80.50
2022-11-06T22:38:52.694Z,80.50
2022-11-06T22:41:22.739Z,80.60
2022-11-06T22:43:50.655Z,80.90
2022-11-06T22:46:22.893Z,81.20
2022-11-06T22:48:52.027Z,81.00
2022-11-06T22:51:22.465Z,81.10
2022-11-06T22:53:50.687Z,81.00
2022-11-06T22:56:18.920Z,81.00
2022-11-06T22:58:47.648Z,81.10
2022-11-06T23:01:14.827Z,81.20
2022-11-06T23:03:42.291Z,81.30
2022-11-06T23:06:10.201Z,81.60
2022-11-06T23:08:44.155Z,81.70
2022-11-06T23:11:17.563Z,81.80
2022-11-06T23:13:45.255Z,81.90
2022-11-06T23:16:15.267Z,81.80
2022-11-06T23:18:42.619Z,82.00
2022-11-06T23:21:22.008Z,82.10
2022-11-06T23:23:49.216Z,82.10
2022-11-06T23:26:18.684Z,82.20
2022-11-06T23:28:46.474Z,82.20
2022-11-06T23:31:15.501Z,82.20
2022-11-06T23:33:43.848Z,82.40
2022-11-06T23:36:13.653Z,82.00
2022-11-06T23:38:41.595Z,81.90
2022-11-06T23:41:31.379Z,81.80
2022-11-06T23:44:01.978Z,81.50
2022-11-06T23:46:32.085Z,81.50
2022-11-06T23:48:59.872Z,81.30
2022-11-06T23:51:27.387Z,81.10
2022-11-06T23:53:54.747Z,80.80
2022-11-06T23:56:22.052Z,80.90
2022-11-06T23:58:49.347Z,80.80
